Terminal Aerodrome Forecast
Issued by NWS

Home | Current Version | Previous Version | Text Only | Print | Product List | Glossary On
Versions: 1 2 3 4 5 6 7 8 9 10 11 12 13 14
000
FTUS41 KAKQ 262343
TAFPHF
TAF
KPHF 262343Z 2700/2724 22012KT P6SM SCT150 BKN250
     FM270800 01013KT P6SM -RA OVC015
     FM271100 02012G20KT 4SM -RA BR OVC008
     FM272000 36010G15KT 5SM -RA BR OVC012=

USA.gov is the U.S. government's official web portal to all federal, state and local government web resources and services.